メインページ
METAR-TAF:

METAR-TAF

空港 :

ヌアクショット, モーリタニア

ヌアクショット空港

緯度: 18-18-36N, 経度: 015-58-11W, 海抜: 3m

現時点の気象観測

当レポートは35分前の01:00(UTC)に作成
北/北東の風 7kt
気温 16°C
湿度 45%
気圧 1018 hPa
視程: 4000m
風塵

METAR: GQNO 180100Z 03007KT 4000 BLDU NSC 16/04 Q1018 NOSIG

時間: 01:35 (01:35 UTC)

予報

当レポートは2時間35分前の23:00(UTC)に作成
予報は18日の 00時(UTC)から 19日の 06時(UTC)まで有効
北東の風 5kt
視程: 6000m
18日の 08時(UTC)から 18日の 10時(UTC)まで徐々に
北東の風 15kt
視程: 4000m
風塵
18日の 18時(UTC)から 18日の 20時(UTC)まで徐々に
北/北東の風 8kt
視程: 6000m

TAF: GQNO 172300Z 1800/1906 04005KT 6000 NSC BECMG 1808/1810 04015KT 4000 BLDU BECMG 1818/1820 03008KT 6000 NSW

4,000以上の空港の気象観測と天気予報(METAR報とTAF報)

利用可能な観測所は地図上に黄色い丸と赤い丸で示す。

丸の上にカーソルを重ねると観測所名を参照できる。

次にクリックすると気象観測と天気予報を参照できる。

マップの切り替え:黒色「×」印の緑ボタンをクリックして拡大、「-」印の緑ボタンをクリックして縮小、緑色の三角印をクリックして隣りの地図に切り替え


METAR-TAF: